createdAt,value
2018-02-25T00:00:28.620Z,1007.6
2018-02-25T00:01:29.275Z,1007.6
2018-02-25T00:02:29.944Z,1007.6
2018-02-25T00:03:30.587Z,1007.6
2018-02-25T00:04:31.244Z,1007.6
2018-02-25T00:05:31.900Z,1007.5
2018-02-25T00:06:32.557Z,1007.5
2018-02-25T00:07:33.211Z,1007.6
2018-02-25T00:08:33.873Z,1007.6
2018-02-25T00:09:34.524Z,1007.5
2018-02-25T00:10:35.206Z,1007.6
2018-02-25T00:11:35.874Z,1007.6
2018-02-25T00:12:36.530Z,1007.6
2018-02-25T00:13:37.186Z,1007.6
2018-02-25T00:14:37.843Z,1007.7
2018-02-25T00:15:38.501Z,1007.6
2018-02-25T00:16:39.159Z,1007.6
2018-02-25T00:17:39.815Z,1007.6
2018-02-25T00:18:40.487Z,1007.7
2018-02-25T00:19:41.128Z,1007.6
2018-02-25T00:20:41.784Z,1007.6
2018-02-25T00:21:42.440Z,1007.6
2018-02-25T00:22:43.097Z,1007.6
2018-02-25T00:23:43.749Z,1007.6
2018-02-25T00:24:44.406Z,1007.5
2018-02-25T00:25:45.063Z,1007.6
2018-02-25T00:26:45.721Z,1007.6
2018-02-25T00:27:46.381Z,1007.6
2018-02-25T00:28:47.034Z,1007.5
2018-02-25T00:29:47.690Z,1007.6
2018-02-25T00:30:48.346Z,1007.5
2018-02-25T00:31:49.002Z,1007.5
2018-02-25T00:32:49.660Z,1007.6
2018-02-25T00:33:50.316Z,1007.6
2018-02-25T00:34:50.973Z,1007.6
2018-02-25T00:35:51.629Z,1007.6
2018-02-25T00:36:52.286Z,1007.6
2018-02-25T00:37:52.943Z,1007.7
2018-02-25T00:38:53.600Z,1007.7
2018-02-25T00:39:54.293Z,1007.7
2018-02-25T00:40:54.948Z,1007.7
2018-02-25T00:41:55.605Z,1007.7
2018-02-25T00:42:56.301Z,1007.7
2018-02-25T00:43:56.951Z,1007.7
2018-02-25T00:44:57.606Z,1007.7
2018-02-25T00:45:58.264Z,1007.7
2018-02-25T00:46:58.919Z,1007.7
2018-02-25T00:47:59.577Z,1007.7
2018-02-25T00:49:00.232Z,1007.7
2018-02-25T00:50:00.887Z,1007.7
2018-02-25T00:51:01.543Z,1007.6
2018-02-25T00:52:02.200Z,1007.6
2018-02-25T00:53:02.855Z,1007.6
2018-02-25T00:54:03.510Z,1007.6
2018-02-25T00:55:04.165Z,1007.6
2018-02-25T00:56:04.821Z,1007.6
2018-02-25T00:57:05.478Z,1007.6
2018-02-25T00:58:06.134Z,1007.6
2018-02-25T00:59:06.791Z,1007.6
2018-02-25T01:00:07.445Z,1007.6
2018-02-25T01:01:08.100Z,1007.5
2018-02-25T01:02:08.762Z,1007.6
2018-02-25T01:03:09.413Z,1007.5
2018-02-25T01:04:10.068Z,1007.5
2018-02-25T01:05:10.722Z,1007.5
2018-02-25T01:06:11.377Z,1007.5
2018-02-25T01:07:12.032Z,1007.5
2018-02-25T01:08:12.690Z,1007.5
2018-02-25T01:09:13.350Z,1007.5
2018-02-25T01:10:14.004Z,1007.5
2018-02-25T01:11:14.660Z,1007.5
2018-02-25T01:12:15.315Z,1007.5
2018-02-25T01:13:15.970Z,1007.5
2018-02-25T01:14:16.624Z,1007.5
2018-02-25T01:15:17.319Z,1007.5
2018-02-25T01:16:17.974Z,1007.5
2018-02-25T01:17:18.628Z,1007.5
2018-02-25T01:18:19.282Z,1007.5
2018-02-25T01:19:19.939Z,1007.5
2018-02-25T01:20:20.591Z,1007.4
2018-02-25T01:21:21.247Z,1007.4
2018-02-25T01:22:21.906Z,1007.3
2018-02-25T01:23:22.560Z,1007.4
2018-02-25T01:24:23.214Z,1007.4
2018-02-25T01:25:23.870Z,1007.4
2018-02-25T01:26:24.526Z,1007.3
2018-02-25T01:27:25.182Z,1007.4
2018-02-25T01:28:25.839Z,1007.4
2018-02-25T01:29:26.493Z,1007.3
2018-02-25T01:30:27.150Z,1007.4
2018-02-25T01:31:27.810Z,1007.3
2018-02-25T01:32:28.484Z,1007.3
2018-02-25T01:33:29.117Z,1007.4
2018-02-25T01:34:29.773Z,1007.4
2018-02-25T01:35:30.429Z,1007.3
2018-02-25T01:36:31.086Z,1007.3
2018-02-25T01:37:31.741Z,1007.3
2018-02-25T01:38:32.397Z,1007.3
2018-02-25T01:39:33.051Z,1007.3
2018-02-25T01:40:33.707Z,1007.3
2018-02-25T01:41:34.365Z,1007.3
2018-02-25T01:42:35.021Z,1007.3
2018-02-25T01:43:35.676Z,1007.3
2018-02-25T01:44:36.331Z,1007.3
2018-02-25T01:45:36.991Z,1007.3
2018-02-25T01:46:37.644Z,1007.3
2018-02-25T01:47:38.299Z,1007.3
2018-02-25T01:48:38.953Z,1007.3
2018-02-25T01:49:39.609Z,1007.3
2018-02-25T01:50:40.263Z,1007.2
2018-02-25T01:51:40.922Z,1007.3
2018-02-25T01:52:41.580Z,1007.2
2018-02-25T01:53:42.231Z,1007.2
2018-02-25T01:54:42.886Z,1007.2
2018-02-25T01:55:43.542Z,1007.2
2018-02-25T01:56:44.197Z,1007.2
2018-02-25T01:57:44.856Z,1007.2
2018-02-25T01:58:45.547Z,1007.3
2018-02-25T01:59:46.241Z,1007.3
2018-02-25T02:00:46.897Z,1007.3
2018-02-25T02:01:47.553Z,1007.3
2018-02-25T02:02:48.207Z,1007.2
2018-02-25T02:03:48.863Z,1007.2
2018-02-25T02:04:49.519Z,1007.3
2018-02-25T02:05:50.174Z,1007.2
2018-02-25T02:06:50.869Z,1007.2
2018-02-25T02:07:51.524Z,1007.2
2018-02-25T02:08:52.217Z,1007.2
2018-02-25T02:09:52.871Z,1007.2
2018-02-25T02:10:53.526Z,1007.3
2018-02-25T02:11:54.221Z,1007.2
2018-02-25T02:12:54.878Z,1007.2
2018-02-25T02:13:55.583Z,1007.3
2018-02-25T02:14:56.237Z,1007.3
2018-02-25T02:15:56.893Z,1007.3
2018-02-25T02:16:57.550Z,1007.2
2018-02-25T02:17:58.208Z,1007.3
2018-02-25T02:18:58.858Z,1007.2
2018-02-25T02:19:59.515Z,1007.3
2018-02-25T02:21:00.170Z,1007.3
2018-02-25T02:22:00.825Z,1007.2
2018-02-25T02:23:01.480Z,1007.2
2018-02-25T02:24:02.134Z,1007.2
2018-02-25T02:25:02.790Z,1007.3
2018-02-25T02:26:03.445Z,1007.2
2018-02-25T02:27:04.103Z,1007.3
2018-02-25T02:28:04.759Z,1007.2
2018-02-25T02:29:05.414Z,1007.3
2018-02-25T02:30:06.071Z,1007.3
2018-02-25T02:31:06.725Z,1007.3
2018-02-25T02:32:07.383Z,1007.3
2018-02-25T02:33:08.036Z,1007.3
2018-02-25T02:34:08.691Z,1007.3
2018-02-25T02:35:09.344Z,1007.3
2018-02-25T02:36:10.001Z,1007.3
2018-02-25T02:37:10.656Z,1007.3
2018-02-25T02:38:11.313Z,1007.3
2018-02-25T02:39:11.968Z,1007.3
2018-02-25T02:40:12.623Z,1007.3
2018-02-25T02:41:13.278Z,1007.3
2018-02-25T02:42:13.933Z,1007.4
2018-02-25T02:43:14.589Z,1007.3
2018-02-25T02:44:15.243Z,1007.3
2018-02-25T02:45:15.898Z,1007.4
2018-02-25T02:46:16.555Z,1007.4
2018-02-25T02:47:17.211Z,1007.3
2018-02-25T02:48:17.866Z,1007.4
2018-02-25T02:49:18.522Z,1007.4
2018-02-25T02:50:19.178Z,1007.4
2018-02-25T02:51:19.831Z,1007.4
2018-02-25T02:52:20.488Z,1007.4
2018-02-25T02:53:21.144Z,1007.4
2018-02-25T02:54:21.796Z,1007.4
2018-02-25T02:55:22.452Z,1007.4
2018-02-25T02:56:23.105Z,1007.4
2018-02-25T02:57:23.761Z,1007.4
2018-02-25T02:58:24.419Z,1007.4
2018-02-25T02:59:25.073Z,1007.4
2018-02-25T03:00:25.729Z,1007.4
2018-02-25T03:01:26.384Z,1007.5
2018-02-25T03:02:27.039Z,1007.4
2018-02-25T03:03:27.696Z,1007.4
2018-02-25T03:04:28.359Z,1007.5
2018-02-25T03:05:29.005Z,1007.4
2018-02-25T03:06:29.659Z,1007.4
2018-02-25T03:07:30.315Z,1007.3
2018-02-25T03:08:30.973Z,1007.4
2018-02-25T03:09:31.629Z,1007.4
2018-02-25T03:10:32.285Z,1007.4
2018-02-25T03:11:32.937Z,1007.4
2018-02-25T03:12:33.591Z,1007.4
2018-02-25T03:13:34.247Z,1007.4
2018-02-25T03:14:34.953Z,1007.4
2018-02-25T03:15:35.609Z,1007.4
2018-02-25T03:16:36.304Z,1007.4
2018-02-25T03:17:37.019Z,1007.4
2018-02-25T03:18:37.644Z,1007.4
2018-02-25T03:19:38.301Z,1007.4
2018-02-25T03:20:38.947Z,1007.3
2018-02-25T03:21:39.602Z,1007.4
2018-02-25T03:22:40.258Z,1007.3
2018-02-25T03:23:40.913Z,1007.4
2018-02-25T03:24:41.568Z,1007.3
2018-02-25T03:25:42.224Z,1007.4
2018-02-25T03:26:42.880Z,1007.4
2018-02-25T03:27:43.535Z,1007.4
2018-02-25T03:28:44.193Z,1007.4
2018-02-25T03:29:44.843Z,1007.4
2018-02-25T03:30:45.498Z,1007.4
2018-02-25T03:31:46.155Z,1007.5
2018-02-25T03:32:46.810Z,1007.4
2018-02-25T03:33:47.457Z,1007.5
2018-02-25T03:34:48.112Z,1007.5
2018-02-25T03:35:48.766Z,1007.4
2018-02-25T03:36:49.419Z,1007.5
2018-02-25T03:37:50.075Z,1007.5
2018-02-25T03:38:50.734Z,1007.5
2018-02-25T03:39:51.384Z,1007.5
2018-02-25T03:40:52.039Z,1007.5
2018-02-25T03:41:52.696Z,1007.5
2018-02-25T03:42:53.346Z,1007.5
2018-02-25T03:43:54.000Z,1007.5
2018-02-25T03:44:54.661Z,1007.5
2018-02-25T03:45:55.314Z,1007.5
2018-02-25T03:46:55.967Z,1007.5
2018-02-25T03:47:56.620Z,1007.4
2018-02-25T03:48:57.276Z,1007.5
2018-02-25T03:49:57.943Z,1007.4
2018-02-25T03:50:58.588Z,1007.4
2018-02-25T03:51:59.240Z,1007.4
2018-02-25T03:52:59.895Z,1007.5
2018-02-25T03:54:00.550Z,1007.5
2018-02-25T03:55:01.203Z,1007.5
2018-02-25T03:56:01.859Z,1007.5
2018-02-25T03:57:02.514Z,1007.5
2018-02-25T03:58:03.168Z,1007.5
2018-02-25T03:59:03.824Z,1007.5
2018-02-25T04:00:04.480Z,1007.5
2018-02-25T04:01:05.134Z,1007.5
2018-02-25T04:02:05.788Z,1007.5
2018-02-25T04:03:06.443Z,1007.5
2018-02-25T04:04:07.096Z,1007.4
2018-02-25T04:05:07.788Z,1007.5
2018-02-25T04:06:08.442Z,1007.5
2018-02-25T04:07:09.095Z,1007.5
2018-02-25T04:08:09.752Z,1007.5
2018-02-25T04:09:10.408Z,1007.5
2018-02-25T04:10:11.100Z,1007.5
2018-02-25T04:11:11.758Z,1007.5
2018-02-25T04:12:12.410Z,1007.5
2018-02-25T04:13:13.066Z,1007.5
2018-02-25T04:14:13.721Z,1007.5
2018-02-25T04:15:14.376Z,1007.5
2018-02-25T04:16:15.031Z,1007.5
2018-02-25T04:17:15.687Z,1007.5
2018-02-25T04:18:16.338Z,1007.5
2018-02-25T04:19:16.993Z,1007.5
2018-02-25T04:20:17.650Z,1007.5
2018-02-25T04:21:18.307Z,1007.5
2018-02-25T04:22:18.998Z,1007.5
2018-02-25T04:23:19.653Z,1007.4
2018-02-25T04:24:20.308Z,1007.4
2018-02-25T04:25:20.997Z,1007.5
2018-02-25T04:26:21.617Z,1007.5
2018-02-25T04:27:22.272Z,1007.4
2018-02-25T04:28:22.926Z,1007.5
2018-02-25T04:29:23.580Z,1007.4
2018-02-25T04:30:24.236Z,1007.5
2018-02-25T04:31:24.891Z,1007.5
2018-02-25T04:32:25.547Z,1007.5
2018-02-25T04:33:26.201Z,1007.5
2018-02-25T04:34:26.855Z,1007.4
2018-02-25T04:35:27.550Z,1007.4
2018-02-25T04:36:28.203Z,1007.4
2018-02-25T04:37:28.859Z,1007.4
2018-02-25T04:38:29.513Z,1007.4
2018-02-25T04:39:30.166Z,1007.4
2018-02-25T04:40:30.819Z,1007.4
2018-02-25T04:41:31.480Z,1007.4
2018-02-25T04:42:32.130Z,1007.3
2018-02-25T04:43:32.786Z,1007.4
2018-02-25T04:44:33.440Z,1007.4
2018-02-25T04:45:34.094Z,1007.4
2018-02-25T04:46:34.748Z,1007.3
2018-02-25T04:47:35.403Z,1007.4
2018-02-25T04:48:36.058Z,1007.4
2018-02-25T04:49:36.711Z,1007.4
2018-02-25T04:50:37.364Z,1007.4
2018-02-25T04:51:38.019Z,1007.4
2018-02-25T04:52:38.673Z,1007.4
2018-02-25T04:53:39.329Z,1007.3
2018-02-25T04:54:39.985Z,1007.4
2018-02-25T04:55:40.638Z,1007.3
2018-02-25T04:56:41.292Z,1007.4
2018-02-25T04:57:41.948Z,1007.4
2018-02-25T04:58:42.604Z,1007.3
2018-02-25T04:59:43.259Z,1007.3
2018-02-25T05:00:43.913Z,1007.4
2018-02-25T05:01:44.569Z,1007.4
2018-02-25T05:02:45.259Z,1007.4
2018-02-25T05:03:45.916Z,1007.5
2018-02-25T05:04:46.569Z,1007.5
2018-02-25T05:05:47.274Z,1007.4
2018-02-25T05:06:47.880Z,1007.4
2018-02-25T05:07:48.536Z,1007.4
2018-02-25T05:08:49.190Z,1007.4
2018-02-25T05:09:49.844Z,1007.5
2018-02-25T05:10:50.497Z,1007.5
2018-02-25T05:11:51.152Z,1007.5
2018-02-25T05:12:51.804Z,1007.5
2018-02-25T05:13:52.458Z,1007.5
2018-02-25T05:14:53.113Z,1007.5
2018-02-25T05:15:53.768Z,1007.5
2018-02-25T05:16:54.426Z,1007.5
2018-02-25T05:17:55.080Z,1007.5
2018-02-25T05:18:55.734Z,1007.5
2018-02-25T05:19:56.388Z,1007.5
2018-02-25T05:20:57.044Z,1007.5
2018-02-25T05:21:57.697Z,1007.5
2018-02-25T05:22:58.352Z,1007.6
2018-02-25T05:23:59.005Z,1007.6
2018-02-25T05:24:59.659Z,1007.6
2018-02-25T05:26:00.315Z,1007.6
2018-02-25T05:27:00.972Z,1007.6
2018-02-25T05:28:01.624Z,1007.6
2018-02-25T05:29:02.279Z,1007.6
2018-02-25T05:30:02.933Z,1007.6
2018-02-25T05:31:03.590Z,1007.6
2018-02-25T05:32:04.243Z,1007.6
2018-02-25T05:33:04.896Z,1007.6
2018-02-25T05:34:05.552Z,1007.6
2018-02-25T05:35:06.203Z,1007.6
2018-02-25T05:36:06.859Z,1007.6
2018-02-25T05:37:07.549Z,1007.6
2018-02-25T05:38:08.207Z,1007.6
2018-02-25T05:39:08.900Z,1007.6
2018-02-25T05:40:09.557Z,1007.6
2018-02-25T05:41:10.209Z,1007.6
2018-02-25T05:42:10.866Z,1007.6
2018-02-25T05:43:11.519Z,1007.6
2018-02-25T05:44:12.173Z,1007.6
2018-02-25T05:45:12.829Z,1007.6
2018-02-25T05:46:13.482Z,1007.6
2018-02-25T05:47:14.136Z,1007.6
2018-02-25T05:48:14.796Z,1007.6
2018-02-25T05:49:15.447Z,1007.6
2018-02-25T05:50:16.104Z,1007.6
2018-02-25T05:51:16.761Z,1007.6
2018-02-25T05:52:17.416Z,1007.6
2018-02-25T05:53:18.073Z,1007.6
2018-02-25T05:54:18.729Z,1007.6
2018-02-25T05:55:19.385Z,1007.6
2018-02-25T05:56:20.039Z,1007.7
2018-02-25T05:57:20.696Z,1007.7
2018-02-25T05:58:21.353Z,1007.7
2018-02-25T05:59:22.006Z,1007.7
2018-02-25T06:00:22.661Z,1007.7
2018-02-25T06:01:23.366Z,1007.7
2018-02-25T06:02:24.025Z,1007.7
2018-02-25T06:03:24.678Z,1007.8
2018-02-25T06:04:25.344Z,1007.8
2018-02-25T06:05:25.992Z,1007.7
2018-02-25T06:06:26.648Z,1007.8
2018-02-25T06:07:27.303Z,1007.8
2018-02-25T06:08:27.959Z,1007.8
2018-02-25T06:09:28.615Z,1007.8
2018-02-25T06:10:29.270Z,1007.9
2018-02-25T06:11:29.930Z,1007.9
2018-02-25T06:12:30.584Z,1007.9
2018-02-25T06:13:31.240Z,1007.9
2018-02-25T06:14:31.898Z,1007.9
2018-02-25T06:15:32.554Z,1007.9
2018-02-25T06:16:33.211Z,1007.9
2018-02-25T06:17:33.868Z,1007.9
2018-02-25T06:18:34.528Z,1007.9
2018-02-25T06:19:35.184Z,1007.8
2018-02-25T06:20:35.846Z,1007.9
2018-02-25T06:21:36.501Z,1007.9
2018-02-25T06:22:37.157Z,1007.9
2018-02-25T06:23:37.818Z,1007.9
2018-02-25T06:24:38.474Z,1007.9
2018-02-25T06:25:39.130Z,1007.9
2018-02-25T06:26:39.789Z,1007.9
2018-02-25T06:27:40.446Z,1007.9
2018-02-25T06:28:41.101Z,1007.9
2018-02-25T06:29:41.758Z,1007.9
2018-02-25T06:30:42.416Z,1007.9
2018-02-25T06:31:43.076Z,1007.9
2018-02-25T06:32:43.737Z,1007.9
2018-02-25T06:33:44.428Z,1007.9
2018-02-25T06:34:45.124Z,1007.9
2018-02-25T06:35:45.780Z,1008.0
2018-02-25T06:36:46.438Z,1008.0
2018-02-25T06:37:47.094Z,1008.0
2018-02-25T06:38:47.753Z,1008.0
2018-02-25T06:39:48.412Z,1008.0
2018-02-25T06:40:49.071Z,1008.0
2018-02-25T06:41:49.727Z,1008.0
2018-02-25T06:42:50.385Z,1008.0
2018-02-25T06:43:51.043Z,1008.1
2018-02-25T06:44:51.702Z,1008.1
2018-02-25T06:45:52.360Z,1008.1
2018-02-25T06:46:53.017Z,1008.1
2018-02-25T06:47:53.788Z,1008.0
2018-02-25T06:48:54.375Z,1008.1
2018-02-25T06:49:55.035Z,1008.1
2018-02-25T06:50:55.694Z,1008.1
2018-02-25T06:51:56.355Z,1008.1
2018-02-25T06:52:57.011Z,1008.1
2018-02-25T06:53:57.671Z,1008.1
2018-02-25T06:54:58.331Z,1008.1
2018-02-25T06:55:58.990Z,1008.1
2018-02-25T06:56:59.648Z,1008.1
2018-02-25T06:58:00.309Z,1008.1
2018-02-25T06:59:00.968Z,1008.1
2018-02-25T07:00:01.626Z,1008.1
2018-02-25T07:01:02.287Z,1008.1
2018-02-25T07:02:02.949Z,1008.1
2018-02-25T07:03:03.603Z,1008.1
2018-02-25T07:04:04.264Z,1008.1
2018-02-25T07:05:04.922Z,1008.1
2018-02-25T07:06:05.582Z,1008.2
2018-02-25T07:07:06.238Z,1008.2
2018-02-25T07:08:06.896Z,1008.2
2018-02-25T07:09:07.561Z,1008.2
2018-02-25T07:10:08.214Z,1008.2
2018-02-25T07:11:08.876Z,1008.2
2018-02-25T07:12:09.534Z,1008.3
2018-02-25T07:13:10.192Z,1008.3
2018-02-25T07:14:10.853Z,1008.2
2018-02-25T07:15:11.511Z,1008.3
2018-02-25T07:16:12.170Z,1008.3
2018-02-25T07:17:12.827Z,1008.3
2018-02-25T07:18:13.488Z,1008.3
2018-02-25T07:19:14.145Z,1008.4
2018-02-25T07:20:14.805Z,1008.4
2018-02-25T07:21:15.478Z,1008.3
2018-02-25T07:22:16.123Z,1008.4
2018-02-25T07:23:16.781Z,1008.3
2018-02-25T07:24:17.440Z,1008.3
2018-02-25T07:25:18.100Z,1008.2
2018-02-25T07:26:18.763Z,1008.3
2018-02-25T07:27:19.419Z,1008.3
2018-02-25T07:28:20.080Z,1008.3
2018-02-25T07:29:20.738Z,1008.3
2018-02-25T07:30:21.397Z,1008.3
2018-02-25T07:31:22.058Z,1008.3
2018-02-25T07:32:22.716Z,1008.3
2018-02-25T07:33:23.375Z,1008.2
2018-02-25T07:34:24.036Z,1008.3
2018-02-25T07:35:24.693Z,1008.2
2018-02-25T07:36:25.353Z,1008.2
2018-02-25T07:37:26.019Z,1008.2
2018-02-25T07:38:26.672Z,1008.2
2018-02-25T07:39:27.332Z,1008.2
2018-02-25T07:40:27.992Z,1008.2
2018-02-25T07:41:28.652Z,1008.2
2018-02-25T07:42:29.344Z,1008.2
2018-02-25T07:43:29.968Z,1008.2
2018-02-25T07:44:30.630Z,1008.2
2018-02-25T07:45:31.327Z,1008.2
2018-02-25T07:46:31.986Z,1008.2
2018-02-25T07:47:32.645Z,1008.2
2018-02-25T07:48:33.304Z,1008.2
2018-02-25T07:49:33.964Z,1008.2
2018-02-25T07:50:34.623Z,1008.1
2018-02-25T07:51:35.281Z,1008.2
2018-02-25T07:52:35.941Z,1008.2
2018-02-25T07:53:36.598Z,1008.2
2018-02-25T07:54:37.296Z,1008.2
2018-02-25T07:55:37.954Z,1008.2
2018-02-25T07:56:38.615Z,1008.2
2018-02-25T07:57:39.274Z,1008.2
2018-02-25T07:58:39.934Z,1008.2
2018-02-25T07:59:40.596Z,1008.2
2018-02-25T08:00:41.251Z,1008.2
2018-02-25T08:01:41.914Z,1008.2
2018-02-25T08:02:42.571Z,1008.2
2018-02-25T08:03:43.231Z,1008.2
2018-02-25T08:04:43.890Z,1008.2
2018-02-25T08:05:44.549Z,1008.2
2018-02-25T08:06:45.210Z,1008.2
2018-02-25T08:07:45.872Z,1008.2
2018-02-25T08:08:46.568Z,1008.3
2018-02-25T08:09:47.228Z,1008.3
2018-02-25T08:10:47.889Z,1008.3
2018-02-25T08:11:48.547Z,1008.2
2018-02-25T08:12:49.209Z,1008.2
2018-02-25T08:13:49.867Z,1008.2
2018-02-25T08:14:50.529Z,1008.2
2018-02-25T08:15:51.189Z,1008.2
2018-02-25T08:16:51.884Z,1008.2
2018-02-25T08:17:52.546Z,1008.2
2018-02-25T08:18:53.206Z,1008.2
2018-02-25T08:19:53.868Z,1008.2
2018-02-25T08:20:54.526Z,1008.3
2018-02-25T08:21:55.186Z,1008.3
2018-02-25T08:22:55.848Z,1008.3
2018-02-25T08:23:56.546Z,1008.3
2018-02-25T08:24:57.205Z,1008.3
2018-02-25T08:25:57.866Z,1008.3
2018-02-25T08:26:58.525Z,1008.3
2018-02-25T08:27:59.235Z,1008.3
2018-02-25T08:28:59.895Z,1008.3
2018-02-25T08:30:00.555Z,1008.3
2018-02-25T08:31:01.218Z,1008.3
2018-02-25T08:32:01.920Z,1008.3
2018-02-25T08:33:02.579Z,1008.2
2018-02-25T08:34:03.239Z,1008.3
2018-02-25T08:35:03.901Z,1008.3
2018-02-25T08:36:04.561Z,1008.2
2018-02-25T08:37:05.224Z,1008.2
2018-02-25T08:38:05.886Z,1008.3
2018-02-25T08:39:06.548Z,1008.2
2018-02-25T08:40:07.214Z,1008.3
2018-02-25T08:41:07.872Z,1008.3
2018-02-25T08:42:08.535Z,1008.4
2018-02-25T08:43:09.195Z,1008.3
2018-02-25T08:44:09.858Z,1008.3
2018-02-25T08:45:10.520Z,1008.3
2018-02-25T08:46:11.185Z,1008.3
2018-02-25T08:47:11.848Z,1008.3
2018-02-25T08:48:12.511Z,1008.2
2018-02-25T08:49:13.174Z,1008.2
2018-02-25T08:50:13.839Z,1008.2
2018-02-25T08:51:14.501Z,1008.2
2018-02-25T08:52:15.165Z,1008.3
2018-02-25T08:53:15.828Z,1008.2
2018-02-25T08:54:16.491Z,1008.3
2018-02-25T08:55:17.156Z,1008.2
2018-02-25T08:56:17.873Z,1008.2
2018-02-25T08:57:18.482Z,1008.2
2018-02-25T08:58:19.144Z,1008.2
2018-02-25T08:59:19.808Z,1008.1
2018-02-25T09:00:20.472Z,1008.2
2018-02-25T09:01:21.175Z,1008.2
2018-02-25T09:02:21.838Z,1008.2
2018-02-25T09:03:22.500Z,1008.2
2018-02-25T09:04:23.162Z,1008.2
2018-02-25T09:05:23.828Z,1008.2
2018-02-25T09:06:24.491Z,1008.2
2018-02-25T09:07:25.154Z,1008.2
2018-02-25T09:08:25.808Z,1008.2
2018-02-25T09:09:26.472Z,1008.1
2018-02-25T09:10:27.136Z,1008.2
2018-02-25T09:11:27.804Z,1008.2
2018-02-25T09:12:28.501Z,1008.2
2018-02-25T09:13:29.163Z,1008.2
2018-02-25T09:14:29.829Z,1008.2
2018-02-25T09:15:30.493Z,1008.2
2018-02-25T09:16:31.156Z,1008.2
2018-02-25T09:17:31.819Z,1008.2
2018-02-25T09:18:32.481Z,1008.2
2018-02-25T09:19:33.146Z,1008.2
2018-02-25T09:20:33.811Z,1008.2
2018-02-25T09:21:34.474Z,1008.2
2018-02-25T09:22:35.177Z,1008.2
2018-02-25T09:23:35.843Z,1008.2
2018-02-25T09:24:36.506Z,1008.2
2018-02-25T09:25:37.173Z,1008.2
2018-02-25T09:26:37.834Z,1008.1
2018-02-25T09:27:38.499Z,1008.2
2018-02-25T09:28:39.160Z,1008.2
2018-02-25T09:29:39.863Z,1008.1
2018-02-25T09:30:40.526Z,1008.1
2018-02-25T09:31:41.189Z,1008.1
2018-02-25T09:32:41.858Z,1008.1
2018-02-25T09:33:42.521Z,1008.1
2018-02-25T09:34:43.182Z,1008.1
2018-02-25T09:35:43.884Z,1008.0
2018-02-25T09:36:44.549Z,1008.0
2018-02-25T09:37:45.214Z,1008.0
2018-02-25T09:38:45.875Z,1008.1
2018-02-25T09:39:46.540Z,1008.0
2018-02-25T09:40:47.203Z,1008.0
2018-02-25T09:41:47.868Z,1008.0
2018-02-25T09:42:48.533Z,1008.0
2018-02-25T09:43:49.198Z,1008.0
2018-02-25T09:44:49.862Z,1008.0
2018-02-25T09:45:50.525Z,1008.0
2018-02-25T09:46:51.194Z,1008.0
2018-02-25T09:47:51.853Z,1007.9
2018-02-25T09:48:52.517Z,1008.0
2018-02-25T09:49:53.182Z,1008.0
2018-02-25T09:50:53.882Z,1008.0
2018-02-25T09:51:54.550Z,1008.0
2018-02-25T09:52:55.221Z,1008.0
2018-02-25T09:53:55.878Z,1007.9
2018-02-25T09:54:56.541Z,1007.9
2018-02-25T09:55:57.245Z,1007.9
2018-02-25T09:56:57.949Z,1007.9
2018-02-25T09:57:58.611Z,1007.9
2018-02-25T09:58:59.278Z,1007.9
2018-02-25T09:59:59.938Z,1007.9
2018-02-25T10:01:00.605Z,1007.9
2018-02-25T10:02:01.269Z,1007.9
2018-02-25T10:03:01.970Z,1007.8
2018-02-25T10:04:02.635Z,1007.9
2018-02-25T10:05:03.300Z,1007.9
2018-02-25T10:06:04.004Z,1007.8
2018-02-25T10:07:04.706Z,1007.9
2018-02-25T10:08:05.370Z,1007.8
2018-02-25T10:09:06.082Z,1007.8
2018-02-25T10:10:06.750Z,1007.9
2018-02-25T10:11:07.411Z,1007.8
2018-02-25T10:12:08.075Z,1007.8
2018-02-25T10:13:08.738Z,1007.8
2018-02-25T10:14:09.404Z,1007.8
2018-02-25T10:15:10.067Z,1007.8
2018-02-25T10:16:10.730Z,1007.8
2018-02-25T10:17:11.395Z,1007.8
2018-02-25T10:18:12.060Z,1007.8
2018-02-25T10:19:12.724Z,1007.8
2018-02-25T10:20:13.389Z,1007.8
2018-02-25T10:21:14.051Z,1007.8
2018-02-25T10:22:14.713Z,1007.8
2018-02-25T10:23:15.378Z,1007.8
2018-02-25T10:24:16.043Z,1007.7
2018-02-25T10:25:16.706Z,1007.8
2018-02-25T10:26:17.371Z,1007.8
2018-02-25T10:27:18.073Z,1007.8
2018-02-25T10:28:18.739Z,1007.8
2018-02-25T10:29:19.402Z,1007.8
2018-02-25T10:30:20.065Z,1007.7
2018-02-25T10:31:20.729Z,1007.8
2018-02-25T10:32:21.394Z,1007.8
2018-02-25T10:33:22.097Z,1007.8
2018-02-25T10:34:22.759Z,1007.7
2018-02-25T10:35:23.424Z,1007.7
2018-02-25T10:36:24.124Z,1007.7
2018-02-25T10:37:24.788Z,1007.7
2018-02-25T10:38:25.451Z,1007.8
2018-02-25T10:39:26.115Z,1007.7
2018-02-25T10:40:26.778Z,1007.7
2018-02-25T10:41:27.481Z,1007.7
2018-02-25T10:42:28.150Z,1007.7
2018-02-25T10:43:28.808Z,1007.6
2018-02-25T10:44:29.473Z,1007.7
2018-02-25T10:45:30.133Z,1007.6
2018-02-25T10:46:30.797Z,1007.6
2018-02-25T10:47:31.463Z,1007.6
2018-02-25T10:48:32.128Z,1007.5
2018-02-25T10:49:32.792Z,1007.5
2018-02-25T10:50:33.456Z,1007.5
2018-02-25T10:51:34.119Z,1007.5
2018-02-25T10:52:34.783Z,1007.4
2018-02-25T10:53:35.449Z,1007.5
2018-02-25T10:54:36.111Z,1007.4
2018-02-25T10:55:36.775Z,1007.4
2018-02-25T10:56:37.484Z,1007.5
2018-02-25T10:57:38.142Z,1007.4
2018-02-25T10:58:38.806Z,1007.4
2018-02-25T10:59:39.469Z,1007.4
2018-02-25T11:00:40.134Z,1007.4
2018-02-25T11:01:40.798Z,1007.3
2018-02-25T11:02:41.463Z,1007.3
2018-02-25T11:03:42.128Z,1007.3
2018-02-25T11:04:42.831Z,1007.3
2018-02-25T11:05:43.537Z,1007.2
2018-02-25T11:06:44.199Z,1007.3
2018-02-25T11:07:44.865Z,1007.2
2018-02-25T11:08:45.528Z,1007.2
2018-02-25T11:09:46.192Z,1007.2
2018-02-25T11:10:46.855Z,1007.2
2018-02-25T11:11:47.520Z,1007.2
2018-02-25T11:12:48.185Z,1007.2
2018-02-25T11:13:48.850Z,1007.2
2018-02-25T11:14:49.557Z,1007.2
2018-02-25T11:15:50.224Z,1007.2
2018-02-25T11:16:50.886Z,1007.2
2018-02-25T11:17:51.548Z,1007.2
2018-02-25T11:18:52.255Z,1007.2
2018-02-25T11:19:52.877Z,1007.2
2018-02-25T11:20:53.543Z,1007.2
2018-02-25T11:21:54.207Z,1007.2
2018-02-25T11:22:54.872Z,1007.2
2018-02-25T11:23:55.537Z,1007.1
2018-02-25T11:24:56.202Z,1007.1
2018-02-25T11:25:56.866Z,1007.0
2018-02-25T11:26:57.531Z,1007.1
2018-02-25T11:27:58.195Z,1007.0
2018-02-25T11:28:58.860Z,1007.1
2018-02-25T11:29:59.524Z,1007.0
2018-02-25T11:31:00.188Z,1007.1
2018-02-25T11:32:00.854Z,1007.0
2018-02-25T11:33:01.521Z,1007.1
2018-02-25T11:34:02.183Z,1007.0
2018-02-25T11:35:02.897Z,1007.0
2018-02-25T11:36:03.563Z,1007.0
2018-02-25T11:37:04.230Z,1007.0
2018-02-25T11:38:04.893Z,1006.9
2018-02-25T11:39:05.557Z,1006.9
2018-02-25T11:40:06.222Z,1007.0
2018-02-25T11:41:06.886Z,1007.0
2018-02-25T11:42:07.550Z,1007.0
2018-02-25T11:43:08.214Z,1007.0
2018-02-25T11:44:08.879Z,1006.9
2018-02-25T11:45:09.545Z,1007.0
2018-02-25T11:46:10.209Z,1007.0
2018-02-25T11:47:10.873Z,1007.0
2018-02-25T11:48:11.539Z,1007.0
2018-02-25T11:49:12.203Z,1006.9
2018-02-25T11:50:12.871Z,1006.9
2018-02-25T11:51:13.537Z,1006.9
2018-02-25T11:52:14.201Z,1006.9
2018-02-25T11:53:14.866Z,1006.9
2018-02-25T11:54:15.531Z,1006.9
2018-02-25T11:55:16.217Z,1006.9
2018-02-25T11:56:16.894Z,1006.9
2018-02-25T11:57:17.558Z,1006.9
2018-02-25T11:58:18.222Z,1006.9
2018-02-25T11:59:18.921Z,1006.9
2018-02-25T12:00:19.550Z,1006.9
2018-02-25T12:01:20.215Z,1006.9
2018-02-25T12:02:20.885Z,1006.9
2018-02-25T12:03:21.586Z,1006.9
2018-02-25T12:04:22.252Z,1006.8
2018-02-25T12:05:22.917Z,1006.9
2018-02-25T12:06:23.582Z,1006.8
2018-02-25T12:07:24.286Z,1006.8
2018-02-25T12:08:25.002Z,1006.8
2018-02-25T12:09:25.618Z,1006.8
2018-02-25T12:10:26.285Z,1006.9
2018-02-25T12:11:26.986Z,1006.8
2018-02-25T12:12:27.690Z,1006.8
2018-02-25T12:13:28.395Z,1006.9
2018-02-25T12:14:29.099Z,1006.9
2018-02-25T12:15:29.765Z,1006.8
2018-02-25T12:16:30.430Z,1006.8
2018-02-25T12:17:31.098Z,1006.8
2018-02-25T12:18:31.802Z,1006.8
2018-02-25T12:19:32.468Z,1006.8
2018-02-25T12:20:33.172Z,1006.8
2018-02-25T12:21:33.798Z,1006.8
2018-02-25T12:22:34.462Z,1006.8
2018-02-25T12:23:35.128Z,1006.8
2018-02-25T12:24:35.792Z,1006.8
2018-02-25T12:25:36.460Z,1006.8
2018-02-25T12:26:37.123Z,1006.8
2018-02-25T12:27:37.792Z,1006.7
2018-02-25T12:28:38.454Z,1006.7
2018-02-25T12:29:39.120Z,1006.7
2018-02-25T12:30:39.788Z,1006.6
2018-02-25T12:31:40.455Z,1006.6
2018-02-25T12:32:41.159Z,1006.7
2018-02-25T12:33:41.825Z,1006.7
2018-02-25T12:34:42.497Z,1006.6
2018-02-25T12:35:43.156Z,1006.6
2018-02-25T12:36:43.821Z,1006.6